Time,TemperatureF,DewpointF,PressureIn,WindDirection,WindDirectionDegrees,WindSpeedMPH,WindSpeedGustMPH,Humidity,HourlyPrecipIn,Conditions,Clouds,dailyrainin,SoftwareType,DateUTC
2013-02-02 07:02:00,24.0,20.0,-100.00,North,-999,-999.0,-999.0,85,-99.99,,,-99.99,,2013-02-02 14:02:00,
2013-02-02 07:11:00,24.0,20.0,-100.00,NE,45,2.0,-999.0,85,0.00,,,-99.99,,2013-02-02 14:11:00,
2013-02-02 07:22:00,23.0,20.0,-100.00,NE,45,2.0,4.0,86,0.00,,,-99.99,,2013-02-02 14:22:00,
2013-02-02 07:32:00,23.0,20.0,-100.00,NE,55,4.0,4.0,87,0.00,,,-99.99,,2013-02-02 14:32:00,
2013-02-02 07:42:00,24.0,21.0,-100.00,East,80,0.0,3.0,87,0.00,,,-99.99,,2013-02-02 14:42:00,
2013-02-02 07:52:00,25.0,22.0,-100.00,NE,35,2.0,3.0,87,0.00,,,-99.99,,2013-02-02 14:52:00,
2013-02-02 08:03:00,27.0,23.0,-100.00,ENE,70,1.0,3.0,85,0.00,,,-99.99,,2013-02-02 15:03:00,
2013-02-02 08:12:00,28.0,24.0,-100.00,East,95,1.0,3.0,82,0.00,,,-99.99,,2013-02-02 15:12:00,
2013-02-02 08:21:00,30.0,25.0,-100.00,SSE,160,1.0,6.0,78,0.00,,,-99.99,,2013-02-02 15:21:00,
2013-02-02 08:32:00,32.0,25.0,-100.00,ENE,70,3.0,4.0,75,0.00,,,-99.99,,2013-02-02 15:32:00,
2013-02-02 08:42:00,34.0,26.0,-100.00,NNW,345,2.0,5.0,71,0.00,,,-99.99,,2013-02-02 15:42:00,
2013-02-02 08:52:00,35.0,26.0,-100.00,NNW,345,1.0,5.0,68,0.00,,,-99.99,,2013-02-02 15:52:00,
2013-02-02 09:02:00,36.0,26.0,-100.00,SW,230,2.0,3.0,66,0.00,,,-99.99,,2013-02-02 16:02:00,
2013-02-02 09:11:00,36.0,25.0,-100.00,SSW,210,3.0,4.0,64,0.00,,,-99.99,,2013-02-02 16:11:00,
2013-02-02 09:22:00,37.0,26.0,-100.00,South,185,2.0,4.0,64,0.00,,,-99.99,,2013-02-02 16:22:00,
2013-02-02 09:32:00,37.0,26.0,-100.00,SW,220,2.0,3.0,62,0.00,,,-99.99,,2013-02-02 16:32:00,
2013-02-02 09:42:00,38.0,26.0,-100.00,SW,220,1.0,3.0,61,0.00,,,-99.99,,2013-02-02 16:42:00,
2013-02-02 09:52:00,40.0,26.0,-100.00,SSW,195,1.0,4.0,58,0.00,,,-99.99,,2013-02-02 16:52:00,
2013-02-02 10:02:00,40.0,26.0,-100.00,SW,220,1.0,4.0,57,0.00,,,-99.99,,2013-02-02 17:02:00,
2013-02-02 10:11:00,42.0,26.0,-100.00,NW,305,2.0,3.0,54,0.00,,,-99.99,,2013-02-02 17:11:00,
2013-02-02 10:22:00,42.0,26.0,-100.00,WNW,285,2.0,4.0,52,0.00,,,-99.99,,2013-02-02 17:22:00,
2013-02-02 10:32:00,43.0,26.0,-100.00,SW,220,2.0,5.0,52,0.00,,,-99.99,,2013-02-02 17:32:00,
2013-02-02 10:41:00,44.0,27.0,-100.00,NNE,20,2.0,5.0,50,0.00,,,-99.99,,2013-02-02 17:41:00,
2013-02-02 10:52:00,45.0,27.0,-100.00,NNW,330,2.0,5.0,48,0.00,,,-99.99,,2013-02-02 17:52:00,
2013-02-02 11:02:00,47.0,28.0,-100.00,South,190,1.0,4.0,46,0.00,,,-99.99,,2013-02-02 18:02:00,
2013-02-02 11:12:00,49.0,28.0,-100.00,SSW,200,4.0,8.0,42,0.00,,,-99.99,,2013-02-02 18:12:00,
2013-02-02 11:22:00,49.0,27.0,-100.00,SSW,205,6.0,10.0,41,0.00,,,-99.99,,2013-02-02 18:22:00,
2013-02-02 11:31:00,53.0,26.0,-100.00,SSE,160,6.0,14.0,35,0.00,,,-99.99,,2013-02-02 18:31:00,
2013-02-02 11:42:00,54.0,23.0,-100.00,East,95,11.0,16.0,29,0.00,,,-99.99,,2013-02-02 18:42:00,
2013-02-02 11:52:00,55.0,22.0,-100.00,SSE,150,4.0,11.0,27,0.00,,,-99.99,,2013-02-02 18:52:00,
2013-02-02 12:02:00,55.0,21.0,-100.00,SSE,150,6.0,11.0,26,0.00,,,-99.99,,2013-02-02 19:02:00,
2013-02-02 12:11:00,56.0,21.0,-100.00,SE,125,5.0,9.0,25,0.00,,,-99.99,,2013-02-02 19:11:00,
2013-02-02 12:21:00,56.0,20.0,-100.00,East,80,9.0,16.0,24,0.00,,,-99.99,,2013-02-02 19:21:00,
2013-02-02 12:32:00,56.0,20.0,-100.00,NE,55,6.0,16.0,24,0.00,,,-99.99,,2013-02-02 19:32:00,
2013-02-02 12:41:00,56.0,20.0,-100.00,ENE,75,10.0,19.0,23,0.00,,,-99.99,,2013-02-02 19:41:00,
2013-02-02 12:51:00,55.0,19.0,-100.00,East,100,11.0,18.0,23,0.00,,,-99.99,,2013-02-02 19:51:00,
2013-02-02 13:01:00,55.0,19.0,-100.00,East,80,12.0,21.0,23,0.00,,,-99.99,,2013-02-02 20:01:00,
2013-02-02 13:11:00,56.0,19.0,-100.00,ENE,70,12.0,20.0,23,0.00,,,-99.99,,2013-02-02 20:11:00,
2013-02-02 13:21:00,56.0,19.0,-100.00,East,100,12.0,21.0,23,0.00,,,-99.99,,2013-02-02 20:21:00,
2013-02-02 13:32:00,56.0,20.0,-100.00,East,90,9.0,22.0,23,0.00,,,-99.99,,2013-02-02 20:32:00,
2013-02-02 13:41:00,56.0,19.0,-100.00,ESE,105,11.0,22.0,22,0.00,,,-99.99,,2013-02-02 20:41:00,
2013-02-02 13:52:00,57.0,19.0,-100.00,ESE,110,7.0,19.0,22,0.00,,,-99.99,,2013-02-02 20:52:00,
2013-02-02 14:02:00,56.0,19.0,-100.00,East,90,12.0,19.0,22,0.00,,,-99.99,,2013-02-02 21:02:00,
2013-02-02 14:11:00,57.0,19.0,-100.00,East,90,6.0,19.0,22,0.00,,,-99.99,,2013-02-02 21:11:00,
2013-02-02 14:21:00,57.0,19.0,-100.00,SE,130,9.0,15.0,22,0.00,,,-99.99,,2013-02-02 21:21:00,
2013-02-02 14:32:00,58.0,19.0,-100.00,ESE,105,7.0,14.0,22,0.00,,,-99.99,,2013-02-02 21:32:00,
2013-02-02 14:42:00,57.0,19.0,-100.00,East,80,7.0,13.0,22,0.00,,,-99.99,,2013-02-02 21:42:00,
2013-02-02 14:51:00,57.0,19.0,-100.00,ESE,105,10.0,15.0,22,0.00,,,-99.99,,2013-02-02 21:51:00,
2013-02-02 15:02:00,57.0,19.0,-100.00,East,95,7.0,21.0,22,0.00,,,-99.99,,2013-02-02 22:02:00,
2013-02-02 15:11:00,57.0,19.0,-100.00,ESE,115,11.0,19.0,22,0.00,,,-99.99,,2013-02-02 22:11:00,
2013-02-02 15:21:00,57.0,19.0,-100.00,East,85,6.0,16.0,22,0.00,,,-99.99,,2013-02-02 22:21:00,
2013-02-02 15:32:00,57.0,19.0,-100.00,ESE,110,7.0,13.0,22,0.00,,,-99.99,,2013-02-02 22:32:00,
2013-02-02 15:42:00,57.0,19.0,-100.00,ESE,105,9.0,18.0,22,0.00,,,-99.99,,2013-02-02 22:42:00,
2013-02-02 15:52:00,57.0,19.0,-100.00,ESE,105,6.0,14.0,22,0.00,,,-99.99,,2013-02-02 22:52:00,
2013-02-02 16:01:00,57.0,20.0,-100.00,SW,220,5.0,11.0,23,0.00,,,-99.99,,2013-02-02 23:01:00,
2013-02-02 16:11:00,57.0,21.0,-100.00,SSE,160,3.0,7.0,24,0.00,,,-99.99,,2013-02-02 23:11:00,
2013-02-02 16:21:00,57.0,22.0,-100.00,SSW,210,3.0,5.0,25,0.00,,,-99.99,,2013-02-02 23:21:00,
2013-02-02 16:32:00,56.0,21.0,-100.00,WSW,245,2.0,4.0,25,0.00,,,-99.99,,2013-02-02 23:32:00,
2013-02-02 16:41:00,54.0,20.0,-100.00,SW,230,6.0,8.0,26,0.00,,,-99.99,,2013-02-02 23:41:00,
2013-02-02 16:52:00,53.0,20.0,-100.00,SW,235,4.0,9.0,27,0.00,,,-99.99,,2013-02-02 23:52:00,
2013-02-02 17:01:00,52.0,20.0,-100.00,WSW,245,4.0,10.0,27,0.00,,,-99.99,,2013-02-03 00:01:00,
2013-02-02 17:11:00,51.0,20.0,-100.00,WSW,240,4.0,6.0,28,0.00,,,-99.99,,2013-02-03 00:11:00,
2013-02-02 17:21:00,50.0,19.0,-100.00,WSW,250,4.0,7.0,29,0.00,,,-99.99,,2013-02-03 00:21:00,
2013-02-02 17:31:00,49.0,19.0,-100.00,ESE,105,1.0,6.0,30,0.00,,,-99.99,,2013-02-03 00:31:00,
2013-02-02 17:40:00,46.0,18.0,-100.00,North,0,3.0,4.0,32,0.00,,,-99.99,,2013-02-03 00:40:00,
2013-02-02 17:41:00,47.0,19.0,-100.00,NNE,15,1.0,2.0,31,0.00,,,-99.99,,2013-02-03 00:41:00,
2013-02-02 17:51:00,46.0,18.0,-100.00,North,0,3.0,4.0,32,0.00,,,-99.99,,2013-02-03 00:51:00,
2013-02-02 18:02:00,46.0,18.0,-100.00,North,0,3.0,4.0,32,0.00,,,-99.99,,2013-02-03 01:02:00,
2013-02-02 18:11:00,46.0,18.0,-100.00,North,0,3.0,4.0,32,0.00,,,-99.99,,2013-02-03 01:11:00,
2013-02-02 18:21:00,46.0,18.0,-100.00,North,0,3.0,4.0,32,0.00,,,-99.99,,2013-02-03 01:21:00,
2013-02-02 18:32:00,46.0,18.0,-100.00,North,0,3.0,4.0,32,0.00,,,-99.99,,2013-02-03 01:32:00,